Time;durP1;ratioP1;P1;durP2;ratioP2;P2;SDS_P1;SDS_P2;PMS_P1;PMS_P2;Temp;Humidity;BMP_temperature;BMP_pressure;BME280_temperature;BME280_humidity;BME280_pressure;Samples;Min_cycle;Max_cycle;Signal;HPM_P1;HPM_P2
2022/01/13 00:01:30;;;;;;;17.67;11.93;;;;;;;-0.16;95.55;101062.78;5069842;28;20200;-69
2022/01/13 00:03:57;;;;;;;17.13;10.80;;;;;;;-0.15;95.42;101066.16;5066254;28;20215;-69
2022/01/13 00:06:24;;;;;;;11.63;8.23;;;;;;;-0.21;95.64;101063.41;5066256;28;20226;-69
2022/01/13 00:08:52;;;;;;;11.87;8.50;;;;;;;-0.23;95.88;101075.97;5069191;28;20227;-68
2022/01/13 00:11:19;;;;;;;9.33;7.10;;;;;;;-0.25;96.38;101067.47;5069283;28;20200;-69
2022/01/13 00:13:49;;;;;;;13.10;8.60;;;;;;;-0.25;96.42;101075.03;5066220;28;20192;-69
2022/01/13 00:16:40;;;;;;;10.40;7.93;;;;;;;-0.27;96.33;101069.06;5064328;28;20258;-69
2022/01/13 00:19:20;;;;;;;12.07;8.50;;;;;;;-0.28;96.46;101072.38;5061881;28;20199;-69
2022/01/13 00:21:57;;;;;;;7.87;7.07;;;;;;;-0.30;96.81;101074.00;5065627;28;20288;-69
2022/01/13 00:24:25;;;;;;;9.40;7.90;;;;;;;-0.30;96.79;101078.16;5067840;28;20298;-69
2022/01/13 00:26:54;;;;;;;11.07;8.67;;;;;;;-0.38;96.99;101066.91;5062171;28;20197;-69
2022/01/13 00:29:27;;;;;;;9.27;7.37;;;;;;;-0.34;96.78;101086.41;5068524;28;20196;-69
2022/01/13 00:31:54;;;;;;;9.97;7.67;;;;;;;-0.36;97.02;101093.91;5068897;28;20222;-69
2022/01/13 00:34:21;;;;;;;7.93;7.13;;;;;;;-0.38;97.24;101095.50;5063636;28;20199;-69
2022/01/13 00:36:47;;;;;;;7.37;6.67;;;;;;;-0.39;97.46;101088.75;5055964;28;20205;-69
2022/01/13 00:39:15;;;;;;;12.43;7.67;;;;;;;-0.41;97.35;101095.38;5069672;28;20302;-69
2022/01/13 00:41:43;;;;;;;7.57;6.77;;;;;;;-0.51;97.61;101103.34;5064950;28;20200;-69
2022/01/13 00:44:10;;;;;;;13.07;7.47;;;;;;;-0.57;97.88;101105.59;5068775;28;20313;-69
2022/01/13 00:46:42;;;;;;;13.43;8.77;;;;;;;-0.68;98.52;101094.25;5062848;28;20197;-69
2022/01/13 00:49:10;;;;;;;15.63;9.50;;;;;;;-0.72;99.24;101110.00;5067765;28;20204;-68
2022/01/13 00:51:37;;;;;;;16.20;9.20;;;;;;;-0.87;100.00;101100.13;5061782;28;20192;-69
2022/01/13 00:54:05;;;;;;;20.37;10.47;;;;;;;-0.96;100.00;101108.97;5056644;28;20204;-69
2022/01/13 00:56:33;;;;;;;9.33;8.00;;;;;;;-1.12;100.00;101103.25;5066751;28;20215;-69
2022/01/13 00:59:03;;;;;;;12.13;8.43;;;;;;;-1.28;100.00;101108.41;5062974;28;20652;-70
2022/01/13 01:01:30;;;;;;;11.43;8.30;;;;;;;-1.42;100.00;101108.63;5066879;28;20206;-70
2022/01/13 01:03:57;;;;;;;10.67;7.70;;;;;;;-1.43;100.00;101107.75;5064805;28;20216;-69
2022/01/13 01:06:23;;;;;;;10.03;7.20;;;;;;;-1.49;100.00;101117.53;5071111;28;20250;-69
2022/01/13 01:08:50;;;;;;;11.80;8.13;;;;;;;-1.48;100.00;101111.69;5070560;28;20228;-69
2022/01/13 01:11:17;;;;;;;7.87;7.10;;;;;;;-1.43;100.00;101107.75;5066973;28;20204;-69
2022/01/13 01:13:47;;;;;;;8.00;7.17;;;;;;;-1.38;100.00;101115.47;5068861;28;20213;-69
2022/01/13 01:16:17;;;;;;;9.00;7.27;;;;;;;-1.32;100.00;101121.66;5070031;28;20291;-69
2022/01/13 01:18:53;;;;;;;8.90;7.13;;;;;;;-1.30;100.00;101125.13;5066377;28;20197;-69
2022/01/13 01:24:31;;;;;;;11.90;8.90;;;;;;;-1.21;100.00;101125.50;5030811;28;20589;-69
2022/01/13 01:27:03;;;;;;;13.13;8.60;;;;;;;-1.23;100.00;101139.66;5060881;28;20193;-69
2022/01/13 01:29:36;;;;;;;7.97;7.03;;;;;;;-1.22;100.00;101143.91;5059712;28;20204;-69
2022/01/13 01:32:09;;;;;;;7.67;6.97;;;;;;;-1.26;100.00;101134.50;5063667;28;20216;-69
2022/01/13 01:34:50;;;;;;;8.97;7.20;;;;;;;-1.23;100.00;101141.34;5056427;28;20196;-68
2022/01/13 01:37:19;;;;;;;8.97;7.77;;;;;;;-1.20;100.00;101152.41;5064498;28;20287;-69
2022/01/13 01:39:48;;;;;;;10.17;7.13;;;;;;;-1.21;100.00;101145.66;5070287;28;20246;-69
2022/01/13 01:42:15;;;;;;;12.63;8.63;;;;;;;-1.21;100.00;101152.31;5066415;28;20656;-69
2022/01/13 01:44:45;;;;;;;10.90;6.93;;;;;;;-1.18;100.00;101160.88;5066137;28;20216;-68
2022/01/13 01:47:15;;;;;;;8.37;7.27;;;;;;;-1.20;100.00;101149.91;5060866;28;20202;-69
2022/01/13 01:49:43;;;;;;;7.80;7.10;;;;;;;-1.21;100.00;101155.72;5063248;28;20193;-69
2022/01/13 01:52:12;;;;;;;9.30;6.60;;;;;;;-1.25;100.00;101142.91;5064519;28;20652;-69
2022/01/13 01:54:39;;;;;;;10.77;7.23;;;;;;;-1.28;100.00;101142.78;5063115;28;20202;-68
2022/01/13 01:57:07;;;;;;;12.53;7.63;;;;;;;-1.27;100.00;101145.38;5066175;28;20204;-68
2022/01/13 01:59:38;;;;;;;8.00;7.17;;;;;;;-1.27;100.00;101150.41;5062674;28;20205;-69
2022/01/13 02:02:06;;;;;;;11.50;6.30;;;;;;;-1.27;100.00;101154.56;5056548;28;20197;-68
2022/01/13 02:04:36;;;;;;;11.40;7.43;;;;;;;-1.26;100.00;101147.06;5063322;28;20216;-69
2022/01/13 02:07:05;;;;;;;14.07;7.90;;;;;;;-1.33;100.00;101132.53;5058171;28;20201;-68
2022/01/13 02:09:34;;;;;;;10.33;7.83;;;;;;;-1.26;100.00;101144.56;5059426;28;20222;-69
2022/01/13 02:12:05;;;;;;;10.90;7.87;;;;;;;-1.25;100.00;101143.78;5064091;28;20313;-68
2022/01/13 02:14:35;;;;;;;10.77;7.50;;;;;;;-1.28;100.00;101137.75;5061924;28;20196;-69
2022/01/13 02:17:07;;;;;;;8.67;7.30;;;;;;;-1.28;100.00;101137.75;5060844;28;20200;-69
2022/01/13 02:19:38;;;;;;;9.37;7.23;;;;;;;-1.27;100.00;101140.34;5057052;28;20223;-69
2022/01/13 02:22:07;;;;;;;12.07;8.33;;;;;;;-1.26;100.00;101131.97;5060918;28;20467;-68
2022/01/13 02:24:34;;;;;;;7.67;6.80;;;;;;;-1.27;100.00;101137.81;5060806;28;20220;-69
2022/01/13 02:27:02;;;;;;;14.00;7.67;;;;;;;-1.35;100.00;101116.47;5060980;28;20247;-69
2022/01/13 02:29:29;;;;;;;11.20;7.67;;;;;;;-1.45;100.00;101099.25;5062788;28;20211;-69
2022/01/13 02:31:56;;;;;;;10.33;8.10;;;;;;;-1.36;100.00;101119.81;5063063;28;20259;-67
2022/01/13 02:34:23;;;;;;;9.43;7.50;;;;;;;-1.40;100.00;101112.91;5061949;28;20262;-68
2022/01/13 02:36:51;;;;;;;13.87;8.17;;;;;;;-1.33;100.00;101122.47;5066621;28;20551;-68
2022/01/13 02:39:21;;;;;;;10.10;7.43;;;;;;;-1.31;100.00;101122.50;5065687;28;20196;-69
2022/01/13 02:41:48;;;;;;;10.37;8.03;;;;;;;-1.31;100.00;101120.00;5059409;28;20216;-69
2022/01/13 02:44:18;;;;;;;13.20;7.67;;;;;;;-1.30;100.00;101120.09;5067648;28;20253;-69
2022/01/13 02:47:08;;;;;;;9.30;6.77;;;;;;;-1.32;100.00;101121.66;5063913;28;20199;-69
2022/01/13 02:49:35;;;;;;;9.53;6.93;;;;;;;-1.35;100.00;101128.19;5061561;28;20199;-69
2022/01/13 02:52:03;;;;;;;9.87;7.23;;;;;;;-1.44;100.00;101100.97;5066880;28;20241;-68
2022/01/13 02:54:32;;;;;;;8.37;7.40;;;;;;;-1.37;100.00;101118.06;5065590;28;20204;-68
2022/01/13 02:56:59;;;;;;;8.63;7.17;;;;;;;-1.39;100.00;101114.63;5065228;28;20208;-69
2022/01/13 02:59:26;;;;;;;8.17;6.80;;;;;;;-1.40;100.00;101112.91;5066383;28;20205;-69
2022/01/13 03:01:53;;;;;;;7.10;6.40;;;;;;;-1.43;100.00;101107.75;5063964;28;20203;-69
2022/01/13 03:04:21;;;;;;;10.03;7.03;;;;;;;-1.46;100.00;101112.66;5060051;28;20204;-68
2022/01/13 03:06:49;;;;;;;7.37;6.53;;;;;;;-1.47;100.00;101110.91;5063787;28;20291;-68
2022/01/13 03:09:16;;;;;;;8.87;7.43;;;;;;;-1.49;100.00;101112.50;5058666;28;20231;-69
2022/01/13 03:11:46;;;;;;;8.33;7.33;;;;;;;-1.48;100.00;101109.19;5068133;28;20204;-69
2022/01/13 03:14:13;;;;;;;8.20;7.40;;;;;;;-1.49;100.00;101117.53;5066705;28;20291;-68
2022/01/13 03:16:41;;;;;;;8.03;7.23;;;;;;;-1.51;100.00;101111.56;5069871;28;20196;-68
2022/01/13 03:19:09;;;;;;;13.03;9.00;;;;;;;-1.59;100.00;101095.28;5064451;28;20708;-69
2022/01/13 03:21:36;;;;;;;18.17;10.73;;;;;;;-1.53;100.00;101103.09;5058097;28;20684;-69
2022/01/13 03:24:06;;;;;;;20.43;13.43;;;;;;;-1.58;100.00;101102.88;5064336;28;20196;-69
2022/01/13 03:26:33;;;;;;;23.70;12.63;;;;;;;-1.68;100.00;101084.81;5065871;28;20248;-68
2022/01/13 03:29:17;;;;;;;20.67;11.90;;;;;;;-1.62;100.00;101100.16;5070048;28;20206;-68
2022/01/13 03:31:46;;;;;;;21.33;11.67;;;;;;;-1.80;100.00;101075.03;5063875;28;20624;-68
2022/01/13 03:34:13;;;;;;;14.33;10.83;;;;;;;-1.66;100.00;101095.78;5067652;28;20188;-69
2022/01/13 03:36:41;;;;;;;25.80;12.40;;;;;;;-1.67;100.00;101104.09;5061579;28;20205;-69
2022/01/13 03:39:10;;;;;;;16.37;10.67;;;;;;;-1.66;100.00;101098.28;5061729;28;20286;-69
2022/01/13 03:41:39;;;;;;;18.90;11.47;;;;;;;-1.69;100.00;101096.50;5061813;28;20207;-69
2022/01/13 03:44:17;;;;;;;17.50;10.90;;;;;;;-1.71;100.00;101103.09;5068739;28;20203;-68
2022/01/13 03:46:44;;;;;;;13.50;8.83;;;;;;;-1.71;100.00;101102.22;5063158;28;20216;-68
2022/01/13 03:49:11;;;;;;;10.83;8.40;;;;;;;-1.74;100.00;101094.56;5065230;28;20192;-69
2022/01/13 03:52:15;;;;;;;11.13;7.87;;;;;;;-1.74;100.00;101099.59;5064558;28;20680;-68
2022/01/13 03:55:31;;;;;;;9.67;7.53;;;;;;;-1.76;100.00;101104.56;5062325;28;20204;-68
2022/01/13 03:58:52;;;;;;;9.37;7.90;;;;;;;-1.79;100.00;101101.03;5059873;28;20203;-68
2022/01/13 04:01:58;;;;;;;8.10;7.40;;;;;;;-1.80;100.00;101111.88;5064164;28;20203;-68
2022/01/13 04:04:24;;;;;;;11.47;7.57;;;;;;;-1.82;100.00;101115.97;5062560;28;20203;-69
2022/01/13 04:07:07;;;;;;;9.30;7.83;;;;;;;-1.88;100.00;101113.19;5057297;28;20754;-68
2022/01/13 04:10:24;;;;;;;10.73;7.77;;;;;;;-1.96;100.00;101114.47;5061275;28;20231;-68
2022/01/13 04:12:50;;;;;;;15.80;8.77;;;;;;;-1.92;100.00;101128.91;5068894;28;20231;-68
2022/01/13 04:15:20;;;;;;;10.63;8.83;;;;;;;-1.95;100.00;101123.72;5063130;28;20203;-68
2022/01/13 04:17:48;;;;;;;9.30;8.13;;;;;;;-1.99;100.00;101134.41;5067093;28;20200;-68
2022/01/13 04:20:15;;;;;;;7.40;6.80;;;;;;;-1.96;100.00;101134.56;5061975;28;20282;-69
2022/01/13 04:22:42;;;;;;;8.57;7.00;;;;;;;-2.00;100.00;101141.09;5069214;28;20192;-68
2022/01/13 04:25:09;;;;;;;8.00;7.20;;;;;;;-2.00;100.00;101145.28;5063863;28;20221;-68
2022/01/13 04:27:42;;;;;;;7.87;7.03;;;;;;;-2.01;100.00;101138.53;5060381;28;20196;-68
2022/01/13 04:30:33;;;;;;;7.40;6.60;;;;;;;-2.13;100.00;101132.09;5066244;28;20192;-68
2022/01/13 04:33:02;;;;;;;10.50;7.90;;;;;;;-2.02;100.00;101141.81;5059197;28;20661;-68
2022/01/13 04:35:29;;;;;;;7.90;6.87;;;;;;;-2.03;100.00;101145.09;5057791;28;20199;-68
2022/01/13 04:37:56;;;;;;;8.00;5.93;;;;;;;-2.05;100.00;101141.66;5062161;28;20201;-68
2022/01/13 04:40:23;;;;;;;6.60;5.97;;;;;;;-2.06;100.00;101139.94;5066656;28;20196;-68
2022/01/13 04:42:53;;;;;;;7.30;6.53;;;;;;;-2.05;100.00;101151.72;5060308;28;20566;-68
2022/01/13 04:45:22;;;;;;;10.57;7.23;;;;;;;-2.06;100.00;101150.00;5069669;28;20277;-69
2022/01/13 04:47:49;;;;;;;7.77;6.57;;;;;;;-2.06;100.00;101145.81;5066266;28;20642;-68
2022/01/13 04:50:18;;;;;;;10.70;8.07;;;;;;;-2.16;100.00;101137.00;5068765;28;20587;-68
2022/01/13 04:52:45;;;;;;;9.80;8.83;;;;;;;-2.17;100.00;101137.81;5065775;28;20650;-68
2022/01/13 04:55:13;;;;;;;10.70;8.87;;;;;;;-2.09;100.00;101149.84;5068374;28;20192;-68
2022/01/13 04:57:41;;;;;;;11.73;6.67;;;;;;;-2.13;100.00;101149.69;5065428;28;20196;-68
2022/01/13 05:00:10;;;;;;;11.00;8.50;;;;;;;-2.15;100.00;101156.31;5065503;28;20200;-68
2022/01/13 05:02:37;;;;;;;13.43;9.50;;;;;;;-2.19;100.00;101161.09;5063842;28;20262;-68
2022/01/13 05:05:04;;;;;;;9.83;8.10;;;;;;;-2.23;100.00;101156.72;5063361;28;20200;-68
2022/01/13 05:07:33;;;;;;;7.27;6.30;;;;;;;-2.25;100.00;101164.19;5064754;28;20199;-68
2022/01/13 05:10:00;;;;;;;9.83;8.03;;;;;;;-2.26;100.00;101154.91;5060315;28;20600;-68
2022/01/13 05:12:32;;;;;;;8.27;6.90;;;;;;;-2.28;100.00;101159.00;5068014;28;20196;-68
2022/01/13 05:15:02;;;;;;;7.93;7.10;;;;;;;-2.28;100.00;101158.16;5069593;28;20258;-68
2022/01/13 05:18:00;;;;;;;7.93;6.83;;;;;;;-2.29;100.00;101157.28;5058271;28;20205;-68
2022/01/13 05:20:37;;;;;;;7.83;6.90;;;;;;;-2.39;100.00;101147.56;5065516;28;20561;-69
2022/01/13 05:23:06;;;;;;;11.03;7.90;;;;;;;-2.34;100.00;101171.28;5062320;28;20204;-69
2022/01/13 05:25:33;;;;;;;11.53;7.73;;;;;;;-2.35;100.00;101177.06;5061753;28;20707;-68
2022/01/13 05:28:00;;;;;;;12.20;9.33;;;;;;;-2.33;100.00;101180.53;5068179;28;20209;-69
2022/01/13 05:30:27;;;;;;;13.60;9.73;;;;;;;-2.37;100.00;101183.69;5069410;28;20258;-68
2022/01/13 05:32:56;;;;;;;13.57;9.33;;;;;;;-2.37;100.00;101191.22;5064980;28;20232;-68
2022/01/13 05:35:24;;;;;;;15.73;9.93;;;;;;;-2.40;100.00;101187.69;5064322;28;20196;-67
2022/01/13 05:37:51;;;;;;;13.37;9.47;;;;;;;-2.43;100.00;101193.41;5061392;28;20197;-68
2022/01/13 05:40:19;;;;;;;15.43;8.80;;;;;;;-2.57;100.00;101174.28;5065341;28;20661;-68
2022/01/13 05:42:47;;;;;;;12.93;8.87;;;;;;;-2.55;100.00;101172.69;5060265;28;20280;-68
2022/01/13 05:45:18;;;;;;;12.53;8.60;;;;;;;-2.45;100.00;101189.94;5064837;28;20575;-68
2022/01/13 05:47:46;;;;;;;16.63;9.80;;;;;;;-2.48;100.00;101187.28;5066446;28;20208;-68
2022/01/13 05:50:15;;;;;;;16.30;10.47;;;;;;;-2.47;100.00;101189.03;5064226;28;20207;-68
2022/01/13 05:52:42;;;;;;;16.67;10.57;;;;;;;-2.48;100.00;101183.91;5064669;28;20204;-68
2022/01/13 05:55:10;;;;;;;14.57;9.77;;;;;;;-2.53;100.00;101196.25;5064790;28;20209;-68
2022/01/13 05:57:38;;;;;;;11.97;9.10;;;;;;;-2.54;100.00;101193.66;5062908;28;20207;-68
2022/01/13 06:00:07;;;;;;;8.87;8.00;;;;;;;-2.56;100.00;101201.13;5065744;28;20196;-68
2022/01/13 06:02:34;;;;;;;9.90;8.20;;;;;;;-2.56;100.00;101210.28;5069316;28;20207;-68
2022/01/13 06:05:01;;;;;;;9.73;8.67;;;;;;;-2.57;100.00;101204.41;5066185;28;20197;-68
2022/01/13 06:07:28;;;;;;;10.83;8.93;;;;;;;-2.57;100.00;101204.41;5068127;28;20212;-68
2022/01/13 06:09:55;;;;;;;42.90;19.73;;;;;;;-2.58;100.00;101212.72;5065819;28;20200;-68
2022/01/13 06:12:32;;;;;;;71.27;28.10;;;;;;;-2.59;100.00;101226.06;5057175;28;20209;-68
2022/01/13 06:15:00;;;;;;;51.60;21.00;;;;;;;-2.64;100.00;101222.44;5061514;28;20200;-67
2022/01/13 06:17:27;;;;;;;34.53;16.40;;;;;;;-2.64;100.00;101227.47;5064685;28;20623;-68
2022/01/13 06:19:55;;;;;;;28.07;15.07;;;;;;;-2.65;100.00;101226.59;5067544;28;20212;-68
2022/01/13 06:22:23;;;;;;;22.07;14.70;;;;;;;-2.68;100.00;101233.09;5068524;28;20212;-68
2022/01/13 06:24:52;;;;;;;21.80;13.00;;;;;;;-2.71;100.00;101228.78;5065901;28;20282;-68
2022/01/13 06:27:19;;;;;;;18.30;12.13;;;;;;;-2.69;100.00;101222.22;5059743;28;20212;-68
2022/01/13 06:29:46;;;;;;;11.17;9.70;;;;;;;-2.69;100.00;101231.41;5065600;28;20205;-68
2022/01/13 06:32:14;;;;;;;11.80;9.90;;;;;;;-2.75;100.00;101228.56;5066889;28;20687;-67
2022/01/13 06:34:41;;;;;;;8.97;8.20;;;;;;;-2.73;100.00;101237.03;5064339;28;20653;-68
2022/01/13 06:37:08;;;;;;;10.70;8.67;;;;;;;-2.77;100.00;101245.19;5069142;28;20571;-68
2022/01/13 06:39:35;;;;;;;8.20;7.07;;;;;;;-2.78;100.00;101253.50;5068337;28;20664;-68
2022/01/13 06:42:02;;;;;;;10.37;6.97;;;;;;;-2.81;100.00;101248.34;5065120;28;20215;-59
2022/01/13 06:44:29;;;;;;;10.43;7.33;;;;;;;-3.00;100.00;101213.84;5061528;28;20212;-70
2022/01/13 06:46:55;;;;;;;12.80;7.37;;;;;;;-2.87;100.00;101247.97;5060266;28;20224;-59
2022/01/13 06:49:24;;;;;;;8.40;7.20;;;;;;;-2.87;100.00;101247.97;5062763;28;20208;-59
2022/01/13 06:51:50;;;;;;;9.77;6.57;;;;;;;-2.94;100.00;101246.78;5069154;28;20200;-69
2022/01/13 06:54:17;;;;;;;6.33;5.77;;;;;;;-3.03;100.00;101242.94;5067453;28;20213;-68
2022/01/13 06:56:44;;;;;;;11.53;7.77;;;;;;;-2.92;100.00;101259.44;5066936;28;20215;-68
2022/01/13 06:59:13;;;;;;;8.90;6.60;;;;;;;-2.89;100.00;101252.06;5069866;28;20206;-67
2022/01/13 07:01:41;;;;;;;7.30;6.60;;;;;;;-2.89;100.00;101250.44;5071144;28;20231;-67
2022/01/13 07:04:10;;;;;;;6.97;5.97;;;;;;;-2.90;100.00;101257.84;5067544;28;20202;-67
2022/01/13 07:06:39;;;;;;;9.47;6.97;;;;;;;-2.86;100.00;101255.59;5069563;28;20216;-66
2022/01/13 07:09:09;;;;;;;13.23;8.63;;;;;;;-2.81;100.00;101255.88;5067364;28;20285;-68
2022/01/13 07:11:36;;;;;;;9.43;7.57;;;;;;;-2.77;100.00;101260.22;5063303;28;20599;-65
2022/01/13 07:14:04;;;;;;;19.57;10.00;;;;;;;-2.78;100.00;101258.53;5070396;28;20262;-66
2022/01/13 07:16:31;;;;;;;14.97;9.87;;;;;;;-2.71;100.00;101270.59;5070114;28;20214;-67
2022/01/13 07:18:58;;;;;;;17.27;10.23;;;;;;;-2.66;100.00;101272.59;5060732;28;20204;-66
2022/01/13 07:21:27;;;;;;;14.73;9.27;;;;;;;-2.59;100.00;101275.41;5059418;28;20277;-69
2022/01/13 07:23:55;;;;;;;14.90;10.23;;;;;;;-2.58;100.00;101277.16;5063306;28;20558;-69
2022/01/13 07:26:23;;;;;;;13.43;11.97;;;;;;;-2.50;100.00;101276.75;5060371;28;20224;-68
2022/01/13 07:28:50;;;;;;;15.40;12.17;;;;;;;-2.47;100.00;101274.41;5056399;28;20197;-70
2022/01/13 07:31:17;;;;;;;18.73;11.30;;;;;;;-2.55;100.00;101253.03;5071746;28;20200;-67
2022/01/13 07:33:44;;;;;;;11.73;8.53;;;;;;;-2.35;100.00;101277.53;5070940;28;20619;-67
2022/01/13 07:36:11;;;;;;;12.80;9.47;;;;;;;-2.29;100.00;101272.81;5066324;28;20580;-68
2022/01/13 07:38:38;;;;;;;12.37;9.37;;;;;;;-2.29;100.00;101262.75;5071090;28;20691;-67
2022/01/13 07:41:07;;;;;;;20.03;11.60;;;;;;;-2.25;100.00;101264.66;5071375;28;20259;-67
2022/01/13 07:43:34;;;;;;;14.07;9.53;;;;;;;-2.16;100.00;101264.25;5071191;28;20200;-68
2022/01/13 07:46:01;;;;;;;13.90;10.57;;;;;;;-2.14;100.00;101266.06;5071324;28;20210;-67
2022/01/13 07:48:27;;;;;;;15.47;10.50;;;;;;;-2.07;100.00;101274.78;5074832;28;20254;-68
2022/01/13 07:50:54;;;;;;;15.43;10.67;;;;;;;-2.00;100.00;101283.50;5074822;28;20274;-68
2022/01/13 07:53:21;;;;;;;15.17;10.07;;;;;;;-1.94;100.00;101276.25;5068599;28;20211;-68
2022/01/13 07:55:49;;;;;;;11.50;10.40;;;;;;;-1.89;100.00;101279.84;5066863;28;20208;-68
2022/01/13 07:58:17;;;;;;;14.87;9.43;;;;;;;-1.91;100.00;101261.31;5074403;28;20291;-68
2022/01/13 08:00:45;;;;;;;21.80;9.90;;;;;;;-1.67;100.00;101272.56;5070821;28;20204;-67
2022/01/13 08:03:12;;;;;;;14.10;10.23;;;;;;;-1.55;100.00;101288.22;5066499;28;20282;-67
2022/01/13 08:05:39;;;;;;;13.30;9.80;;;;;;;-1.47;100.00;101281.94;5063430;28;20196;-67
2022/01/13 08:08:06;;;;;;;16.73;10.83;;;;;;;-1.37;100.00;101284.09;5071422;28;20220;-68
2022/01/13 08:10:34;;;;;;;14.87;11.03;;;;;;;-1.20;100.00;101288.28;5062926;28;20262;-68
2022/01/13 08:13:00;;;;;;;17.00;11.00;;;;;;;-1.06;100.00;101287.25;5065260;28;20196;-67
2022/01/13 08:15:29;;;;;;;18.10;12.03;;;;;;;-1.16;100.00;101244.84;5068347;28;20199;-66
2022/01/13 08:20:40;;;;;;;15.27;9.80;;;;;;;-0.79;100.00;101251.53;5060022;28;20247;-67
2022/01/13 08:23:09;;;;;;;16.10;9.70;;;;;;;-0.62;100.00;101264.09;5069360;28;20208;-67
2022/01/13 08:25:36;;;;;;;12.23;9.23;;;;;;;-0.48;100.00;101269.72;5060548;28;20295;-66
2022/01/13 08:28:04;;;;;;;15.77;10.67;;;;;;;-0.37;100.00;101263.50;5067841;28;20219;-66
2022/01/13 08:30:32;;;;;;;14.00;10.17;;;;;;;-0.31;100.00;101271.34;5061323;28;20589;-66
2022/01/13 08:32:59;;;;;;;21.17;11.77;;;;;;;-0.23;100.00;101272.53;5069421;28;20204;-66
2022/01/13 08:35:26;;;;;;;19.20;10.57;;;;;;;-0.15;99.43;101271.19;5069633;28;20204;-67
2022/01/13 08:37:53;;;;;;;14.37;10.40;;;;;;;-0.09;99.41;101271.44;5065315;28;20204;-67
2022/01/13 08:40:20;;;;;;;18.37;11.73;;;;;;;0.03;99.70;101280.34;5065131;28;20277;-67
2022/01/13 08:42:47;;;;;;;18.80;10.63;;;;;;;0.16;99.52;101264.91;5066615;28;20201;-67
2022/01/13 08:45:14;;;;;;;18.33;11.90;;;;;;;0.24;98.14;101266.06;5071562;28;20207;-67
2022/01/13 08:47:44;;;;;;;22.67;10.80;;;;;;;0.30;95.41;101281.47;5070379;28;20230;-67
2022/01/13 08:50:11;;;;;;;10.97;9.87;;;;;;;0.37;96.23;101278.41;5062694;28;20208;-67
2022/01/13 08:52:38;;;;;;;12.13;10.03;;;;;;;0.38;95.31;101275.09;5063511;28;20261;-66
2022/01/13 08:55:07;;;;;;;16.00;10.10;;;;;;;0.50;95.57;101283.13;5063514;28;20200;-66
2022/01/13 08:57:34;;;;;;;16.10;10.70;;;;;;;0.50;94.79;101280.63;5066254;28;20201;-67
2022/01/13 09:00:01;;;;;;;16.63;11.13;;;;;;;0.49;94.47;101279.75;5063810;28;20291;-66
2022/01/13 09:02:32;;;;;;;25.43;12.40;;;;;;;0.60;95.30;101285.22;5069365;28;20211;-67
2022/01/13 09:05:01;;;;;;;28.07;14.10;;;;;;;0.68;94.69;101285.53;5064270;28;20212;-67
2022/01/13 09:07:28;;;;;;;27.87;13.60;;;;;;;0.76;95.57;101296.78;5066872;28;20227;-68
2022/01/13 09:09:55;;;;;;;18.53;13.33;;;;;;;0.86;96.35;101284.59;5063635;28;20204;-67
2022/01/13 09:12:22;;;;;;;24.33;12.60;;;;;;;0.95;97.17;101277.38;5068648;28;20218;-67
2022/01/13 09:14:50;;;;;;;20.23;13.40;;;;;;;1.03;95.67;101285.25;5071468;28;20204;-67
2022/01/13 09:17:22;;;;;;;21.23;13.40;;;;;;;1.10;95.73;101276.25;5070756;28;20192;-68
2022/01/13 09:19:49;;;;;;;22.87;11.20;;;;;;;1.10;93.49;101281.28;5066818;28;20291;-68
2022/01/13 09:22:18;;;;;;;12.57;10.37;;;;;;;1.07;91.97;101278.66;5060416;28;20744;-68
2022/01/13 09:24:45;;;;;;;18.47;11.40;;;;;;;1.05;93.85;101264.28;5058085;28;20649;-68
2022/01/13 09:27:12;;;;;;;14.60;10.27;;;;;;;1.15;92.22;101262.09;5068850;28;20608;-68
2022/01/13 09:29:39;;;;;;;31.03;11.00;;;;;;;1.22;91.95;101267.44;5062048;28;20661;-67
2022/01/13 09:32:06;;;;;;;12.63;8.53;;;;;;;1.29;90.40;101271.06;5068481;28;20813;-68
2022/01/13 09:34:33;;;;;;;16.90;9.93;;;;;;;1.32;92.52;101278.75;5066714;28;20214;-68
2022/01/13 09:37:00;;;;;;;12.83;8.90;;;;;;;1.44;90.86;101266.56;5070053;28;20221;-68
2022/01/13 09:39:29;;;;;;;9.43;8.43;;;;;;;1.46;91.71;101272.53;5065492;28;20201;-67
2022/01/13 09:41:57;;;;;;;12.73;8.00;;;;;;;1.40;88.38;101257.13;5066514;28;20702;-68
2022/01/13 09:44:28;;;;;;;11.57;9.00;;;;;;;1.52;88.98;101247.47;5065821;28;20212;-68
2022/01/13 09:46:55;;;;;;;8.33;7.57;;;;;;;1.57;88.00;101246.84;5067618;28;20215;-68
2022/01/13 09:49:22;;;;;;;11.23;7.70;;;;;;;1.68;88.39;101244.66;5062372;28;20318;-68
2022/01/13 09:51:50;;;;;;;9.40;7.53;;;;;;;1.71;88.13;101238.88;5056916;28;20275;-68
2022/01/13 09:54:16;;;;;;;11.53;8.17;;;;;;;1.73;86.94;101242.31;5066306;28;20204;-67
2022/01/13 09:56:45;;;;;;;11.43;8.40;;;;;;;1.80;86.57;101247.66;5068754;28;20204;-67
2022/01/13 09:59:12;;;;;;;9.27;8.37;;;;;;;1.83;85.70;101249.41;5063753;28;20584;-69
2022/01/13 10:01:39;;;;;;;9.10;7.53;;;;;;;1.86;84.64;101232.69;5064797;28;20205;-69
2022/01/13 10:04:06;;;;;;;8.87;7.73;;;;;;;1.88;84.68;101223.47;5063937;28;20200;-72
2022/01/13 10:06:41;;;;;;;8.13;7.33;;;;;;;1.79;83.50;101228.22;5063066;28;20200;-69
2022/01/13 10:09:08;;;;;;;10.97;8.57;;;;;;;1.85;85.84;101228.41;5066090;28;20223;-69
2022/01/13 10:11:39;;;;;;;8.40;7.63;;;;;;;1.90;86.63;101221.00;5067522;28;20200;-69
2022/01/13 10:14:12;;;;;;;9.73;8.23;;;;;;;1.94;83.02;101225.38;5066963;28;20667;-69
2022/01/13 10:16:47;;;;;;;9.33;7.77;;;;;;;1.95;83.31;101212.75;5057799;28;20664;-69
2022/01/13 10:19:29;;;;;;;9.73;7.63;;;;;;;2.08;86.27;101211.47;5067860;28;20237;-69
2022/01/13 10:21:57;;;;;;;9.17;8.07;;;;;;;2.07;85.89;101220.75;5067320;28;20203;-69
2022/01/13 10:24:26;;;;;;;10.50;8.20;;;;;;;2.13;84.41;101206.59;5062952;28;20293;-68
2022/01/13 10:27:00;;;;;;;11.33;8.70;;;;;;;2.19;84.56;101209.31;5068339;28;20211;-68
2022/01/13 10:29:42;;;;;;;10.17;8.47;;;;;;;2.06;83.09;101168.44;5065839;28;20213;-67
2022/01/13 10:32:10;;;;;;;9.87;8.23;;;;;;;2.19;83.84;101189.06;5057107;28;20574;-67
2022/01/13 10:34:39;;;;;;;11.33;8.87;;;;;;;2.21;84.89;101183.25;5067437;28;20664;-67
2022/01/13 10:37:13;;;;;;;9.27;7.70;;;;;;;2.33;84.13;101180.22;5063090;28;20196;-67
2022/01/13 10:39:59;;;;;;;11.07;9.13;;;;;;;2.28;84.23;101167.44;5065323;28;20275;-67
2022/01/13 10:43:10;;;;;;;13.43;9.03;;;;;;;2.34;85.35;101151.59;5063358;28;20742;-68
2022/01/13 10:45:53;;;;;;;15.27;8.87;;;;;;;2.33;84.38;101142.25;5062752;28;20200;-67
2022/01/13 10:48:23;;;;;;;9.53;8.50;;;;;;;2.45;83.31;101150.25;5062598;28;20224;-67
2022/01/13 10:50:53;;;;;;;10.80;8.13;;;;;;;2.45;83.72;101143.53;5067314;28;20199;-68
2022/01/13 10:53:22;;;;;;;11.47;8.60;;;;;;;2.48;83.97;101137.69;5067371;28;20208;-67
2022/01/13 10:55:51;;;;;;;9.70;8.60;;;;;;;2.55;84.97;101129.47;5057916;28;20231;-69
2022/01/13 10:58:23;;;;;;;9.93;8.90;;;;;;;2.62;84.04;101131.34;5066501;28;20191;-68
2022/01/13 11:00:53;;;;;;;11.53;8.23;;;;;;;2.59;82.78;101129.59;5064009;28;20238;-68
2022/01/13 11:03:22;;;;;;;13.57;9.20;;;;;;;2.64;82.72;101134.81;5063835;28;20204;-67
2022/01/13 11:05:50;;;;;;;9.70;8.70;;;;;;;2.73;84.09;101130.00;5063254;28;20207;-68
2022/01/13 11:08:26;;;;;;;12.00;9.10;;;;;;;2.75;84.22;101125.81;5066469;28;20232;-68
2022/01/13 11:10:55;;;;;;;10.83;8.80;;;;;;;2.76;84.04;101109.81;5060220;28;20207;-69
2022/01/13 11:13:27;;;;;;;14.80;9.57;;;;;;;2.76;81.67;101109.81;5064112;28;20192;-69
2022/01/13 11:15:56;;;;;;;11.67;7.97;;;;;;;2.84;80.55;101107.53;5065720;28;20234;-69
2022/01/13 11:18:25;;;;;;;12.43;8.17;;;;;;;2.80;79.78;101104.03;5066513;28;20196;-69
2022/01/13 11:20:53;;;;;;;14.10;9.17;;;;;;;2.82;82.17;101099.00;5062905;28;20579;-68
2022/01/13 11:23:21;;;;;;;10.70;8.77;;;;;;;2.84;81.18;101099.91;5068547;28;20204;-69
2022/01/13 11:25:49;;;;;;;10.57;8.37;;;;;;;2.83;80.53;101096.53;5070675;28;20679;-68
2022/01/13 11:28:16;;;;;;;10.37;7.67;;;;;;;2.86;79.65;101086.47;5072399;28;20621;-68
2022/01/13 11:30:44;;;;;;;13.43;8.60;;;;;;;2.85;78.09;101084.75;5070959;28;20560;-69
2022/01/13 11:33:12;;;;;;;11.23;8.07;;;;;;;2.82;80.75;101064.41;5066898;28;20212;-69